Time;durP1;ratioP1;P1;durP2;ratioP2;P2;SDS_P1;SDS_P2;PMS_P1;PMS_P2;Temp;Humidity;BMP_temperature;BMP_pressure;BME280_temperature;BME280_humidity;BME280_pressure;Samples;Min_cycle;Max_cycle;Signal;HPM_P1;HPM_P2
2023/11/16 00:00:12;;;;;;;3.43;3.10;;;;;;;9.18;78.54;93421.72;517644;28;880;-64
2023/11/16 00:00:27;;;;;;;3.03;2.75;;;;;;;9.38;78.82;93457.50;517650;28;849;-65
2023/11/16 00:00:42;;;;;;;2.90;2.70;;;;;;;9.38;78.44;93456.75;517629;28;865;-64
2023/11/16 00:00:58;;;;;;;2.90;2.70;;;;;;;9.35;78.51;93460.59;517584;28;853;-64
2023/11/16 00:01:14;;;;;;;2.80;2.60;;;;;;;9.34;78.34;93456.34;517590;28;899;-64
2023/11/16 00:01:30;;;;;;;2.67;2.47;;;;;;;9.33;78.70;93461.16;517516;28;921;-64
2023/11/16 00:01:49;;;;;;;2.67;2.47;;;;;;;9.33;78.51;93454.91;517626;28;904;-64
2023/11/16 00:02:05;;;;;;;2.42;2.30;;;;;;;9.33;78.46;93454.91;517461;28;837;-64
2023/11/16 00:02:21;;;;;;;2.00;1.90;;;;;;;9.33;78.60;93463.91;517710;28;908;-64
2023/11/16 00:02:37;;;;;;;2.00;1.90;;;;;;;9.32;78.56;93458.91;517708;28;788;-65
2023/11/16 00:02:52;;;;;;;2.22;2.03;;;;;;;9.31;78.77;93454.69;517562;28;984;-65
2023/11/16 00:03:08;;;;;;;2.23;2.03;;;;;;;9.32;78.50;93467.94;517443;28;888;-64
2023/11/16 00:03:23;;;;;;;2.15;2.00;;;;;;;9.30;78.63;93455.97;517700;28;774;-64
2023/11/16 00:03:39;;;;;;;2.20;2.10;;;;;;;9.29;78.62;93460.03;517510;28;864;-64
2023/11/16 00:03:54;;;;;;;2.30;2.20;;;;;;;9.29;78.25;93454.50;517672;28;812;-65
2023/11/16 00:04:10;;;;;;;2.35;2.20;;;;;;;9.30;78.25;93453.22;517411;28;830;-64
2023/11/16 00:04:26;;;;;;;2.75;2.00;;;;;;;9.29;78.30;93457.25;515641;28;2421;-64
2023/11/16 00:04:41;;;;;;;2.63;2.10;;;;;;;9.27;78.27;93459.81;515599;28;1616;-64
2023/11/16 00:04:57;;;;;;;2.25;2.15;;;;;;;9.27;78.23;93452.28;515628;28;790;-64
2023/11/16 00:05:16;;;;;;;2.10;2.00;;;;;;;9.26;78.25;93461.81;515493;28;841;-65
2023/11/16 00:05:35;;;;;;;2.15;2.05;;;;;;;9.26;78.21;93456.31;515532;28;937;-65
2023/11/16 00:05:51;;;;;;;1.98;1.88;;;;;;;9.26;78.15;93461.09;515496;28;1023;-64
2023/11/16 00:06:07;;;;;;;1.70;1.60;;;;;;;9.25;78.02;93460.34;515358;28;861;-64
2023/11/16 00:06:23;;;;;;;1.85;1.75;;;;;;;9.24;78.22;93463.66;515528;28;1070;-64
2023/11/16 00:06:38;;;;;;;2.07;1.97;;;;;;;9.26;77.89;93461.81;515687;28;917;-64
2023/11/16 00:06:54;;;;;;;2.00;1.90;;;;;;;9.24;77.93;93458.88;515767;28;769;-65
2023/11/16 00:07:10;;;;;;;2.10;2.00;;;;;;;9.23;78.17;93462.16;515418;28;852;-64
2023/11/16 00:07:27;;;;;;;2.03;1.92;;;;;;;9.23;77.85;93459.41;515486;28;1902;-64
2023/11/16 00:07:46;;;;;;;2.35;2.25;;;;;;;9.22;77.88;93464.19;515053;28;1190;-64
2023/11/16 00:08:06;;;;;;;2.50;2.40;;;;;;;9.22;77.79;93453.16;513476;28;919;-64
2023/11/16 00:08:22;;;;;;;2.33;2.22;;;;;;;9.22;77.70;93461.44;514167;28;871;-65
2023/11/16 00:08:37;;;;;;;2.50;2.30;;;;;;;9.20;77.79;93458.47;515643;28;749;-65
2023/11/16 00:08:53;;;;;;;2.50;2.17;;;;;;;9.01;77.91;93430.41;515725;28;816;-64
2023/11/16 00:09:09;;;;;;;1.95;1.85;;;;;;;9.19;78.18;93457.00;515370;28;801;-64
2023/11/16 00:09:25;;;;;;;2.10;2.00;;;;;;;9.18;78.18;93461.75;515498;28;1159;-65
2023/11/16 00:09:41;;;;;;;2.00;1.90;;;;;;;9.18;78.15;93460.28;515557;28;758;-65
2023/11/16 00:09:56;;;;;;;1.70;1.60;;;;;;;9.18;77.98;93468.56;515517;28;844;-65
2023/11/16 00:10:14;;;;;;;2.57;2.37;;;;;;;9.16;78.36;93467.06;515461;28;895;-64
2023/11/16 00:10:29;;;;;;;2.50;2.30;;;;;;;9.16;78.15;93467.06;515576;28;955;-64
2023/11/16 00:10:44;;;;;;;2.20;2.10;;;;;;;9.15;78.14;93465.59;515677;28;917;-64
2023/11/16 00:11:00;;;;;;;2.25;2.15;;;;;;;9.15;78.33;93465.59;515677;28;904;-64
2023/11/16 00:11:16;;;;;;;2.37;2.27;;;;;;;9.15;78.30;93460.09;515435;28;951;-64
2023/11/16 00:11:32;;;;;;;2.50;2.40;;;;;;;9.13;78.31;93467.41;515485;28;820;-64
2023/11/16 00:11:48;;;;;;;2.40;2.30;;;;;;;9.10;78.56;93466.47;515730;28;1033;-64
2023/11/16 00:12:04;;;;;;;2.28;2.17;;;;;;;9.07;78.68;93459.28;515523;28;884;-64
2023/11/16 00:12:20;;;;;;;2.50;2.40;;;;;;;9.05;78.47;93461.13;515653;28;758;-64
2023/11/16 00:12:35;;;;;;;2.50;2.40;;;;;;;9.03;78.81;93461.63;515731;28;893;-64
2023/11/16 00:12:52;;;;;;;2.15;2.05;;;;;;;9.04;78.74;93465.13;515622;28;828;-64
2023/11/16 00:13:09;;;;;;;2.30;2.20;;;;;;;9.04;78.86;93471.38;515562;28;927;-64
2023/11/16 00:13:24;;;;;;;2.30;2.20;;;;;;;8.99;79.10;93468.75;515530;28;908;-64
2023/11/16 00:13:39;;;;;;;2.37;2.27;;;;;;;8.99;79.07;93466.75;515448;28;785;-65
2023/11/16 00:13:56;;;;;;;2.40;2.30;;;;;;;8.98;78.94;93462.53;515573;28;1529;-65
2023/11/16 00:14:11;;;;;;;2.97;2.85;;;;;;;8.98;79.31;93462.53;515547;28;840;-65
2023/11/16 00:14:27;;;;;;;3.27;3.07;;;;;;;8.97;79.04;93460.28;513494;28;865;-66
2023/11/16 00:14:42;;;;;;;3.22;3.03;;;;;;;8.96;79.21;93458.84;513488;28;868;-64
2023/11/16 00:14:58;;;;;;;3.10;2.90;;;;;;;8.94;79.56;93464.84;513491;28;833;-64
2023/11/16 00:15:13;;;;;;;2.63;2.53;;;;;;;8.96;79.37;93464.34;513377;28;805;-64
2023/11/16 00:15:31;;;;;;;2.47;2.38;;;;;;;8.71;79.38;93419.13;513150;28;817;-64
2023/11/16 00:15:47;;;;;;;2.35;2.25;;;;;;;8.96;79.52;93461.59;513351;28;1056;-64
2023/11/16 00:16:03;;;;;;;2.40;2.30;;;;;;;8.98;79.66;93461.78;513382;28;829;-64
2023/11/16 00:16:19;;;;;;;2.33;2.22;;;;;;;8.97;79.67;93454.78;514359;28;860;-64
2023/11/16 00:16:36;;;;;;;2.15;2.05;;;;;;;8.97;79.52;93465.81;515445;28;1752;-64
2023/11/16 00:16:53;;;;;;;1.83;1.73;;;;;;;8.79;79.53;93426.19;515652;28;840;-64
2023/11/16 00:17:08;;;;;;;1.95;1.85;;;;;;;8.98;79.88;93457.03;515304;28;1011;-64
2023/11/16 00:17:24;;;;;;;2.70;2.60;;;;;;;8.98;79.46;93453.53;515640;28;1021;-64
2023/11/16 00:17:39;;;;;;;3.00;2.90;;;;;;;9.00;79.62;93459.22;515564;28;828;-65
2023/11/16 00:17:54;;;;;;;3.13;2.97;;;;;;;8.91;79.52;93441.16;515373;28;1146;-65
2023/11/16 00:18:10;;;;;;;2.73;2.63;;;;;;;8.97;79.38;93449.28;515578;28;808;-65
2023/11/16 00:18:27;;;;;;;2.50;2.40;;;;;;;9.03;79.46;93452.66;515590;28;1510;-65
2023/11/16 00:18:43;;;;;;;2.50;2.40;;;;;;;9.04;79.24;93452.13;515531;28;1648;-64
2023/11/16 00:19:00;;;;;;;2.38;2.28;;;;;;;9.05;79.41;93455.63;515621;28;878;-64
2023/11/16 00:19:18;;;;;;;2.30;2.20;;;;;;;9.06;79.23;93455.06;515430;28;978;-64
2023/11/16 00:19:35;;;;;;;2.40;2.20;;;;;;;9.07;79.14;93453.78;515359;28;982;-64
2023/11/16 00:19:50;;;;;;;3.58;2.33;;;;;;;9.08;79.20;93460.78;515549;28;847;-64
2023/11/16 00:20:07;;;;;;;3.50;2.30;;;;;;;9.08;79.24;93454.53;515511;28;861;-65
2023/11/16 00:20:23;;;;;;;2.30;2.20;;;;;;;9.07;79.36;93461.31;515521;28;880;-64
2023/11/16 00:20:38;;;;;;;2.40;2.30;;;;;;;9.05;79.30;93450.09;515555;28;880;-64
2023/11/16 00:20:55;;;;;;;2.72;2.63;;;;;;;8.89;79.32;93435.47;515729;28;769;-64
2023/11/16 00:21:11;;;;;;;2.85;2.75;;;;;;;8.99;79.68;93450.22;515516;28;833;-64
2023/11/16 00:21:26;;;;;;;2.53;2.42;;;;;;;8.99;79.79;93450.22;515601;28;1554;-64
2023/11/16 00:21:42;;;;;;;2.40;2.30;;;;;;;9.00;79.68;93457.22;515581;28;749;-64
2023/11/16 00:21:57;;;;;;;2.40;2.30;;;;;;;9.01;79.73;93453.19;515531;28;873;-65
2023/11/16 00:22:12;;;;;;;2.35;2.25;;;;;;;9.01;79.56;93447.66;515654;28;825;-65
2023/11/16 00:22:28;;;;;;;2.37;2.27;;;;;;;9.01;79.66;93453.19;515391;28;891;-65
2023/11/16 00:22:43;;;;;;;2.40;2.30;;;;;;;9.02;79.53;93453.94;515469;28;872;-64
2023/11/16 00:22:59;;;;;;;2.37;2.27;;;;;;;9.02;79.63;93449.16;515515;28;888;-64
2023/11/16 00:23:14;;;;;;;2.30;2.20;;;;;;;9.02;79.64;93454.66;515559;28;844;-64
2023/11/16 00:23:30;;;;;;;2.23;2.13;;;;;;;9.01;79.89;93447.66;515396;28;821;-64
2023/11/16 00:23:45;;;;;;;2.67;2.57;;;;;;;9.01;79.64;93449.69;515238;28;833;-65
2023/11/16 00:24:00;;;;;;;3.00;2.80;;;;;;;9.01;79.67;93447.66;515599;28;931;-64
2023/11/16 00:24:16;;;;;;;2.70;2.50;;;;;;;9.02;79.74;93445.66;515594;28;793;-65
2023/11/16 00:24:31;;;;;;;2.40;2.30;;;;;;;9.01;79.99;93446.94;515372;28;844;-65
2023/11/16 00:24:47;;;;;;;2.50;2.40;;;;;;;9.00;79.76;93445.47;515476;28;825;-65
2023/11/16 00:25:06;;;;;;;2.63;2.53;;;;;;;8.99;79.96;93444.72;515612;28;754;-65
2023/11/16 00:25:21;;;;;;;2.45;2.35;;;;;;;8.98;79.59;93445.25;515586;28;836;-65
2023/11/16 00:25:37;;;;;;;2.83;2.72;;;;;;;8.95;79.60;93444.31;515357;28;770;-64
2023/11/16 00:25:53;;;;;;;2.85;2.75;;;;;;;8.93;79.91;93449.63;515269;28;1692;-64
2023/11/16 00:26:11;;;;;;;2.63;2.53;;;;;;;8.95;79.75;93447.06;515411;28;824;-64
2023/11/16 00:26:27;;;;;;;3.22;2.95;;;;;;;8.91;80.03;93445.94;515737;28;859;-65
2023/11/16 00:26:44;;;;;;;3.47;3.28;;;;;;;8.91;80.05;93446.69;515471;28;880;-64
2023/11/16 00:27:00;;;;;;;3.38;3.17;;;;;;;8.90;80.09;93449.97;515393;28;808;-65
2023/11/16 00:27:15;;;;;;;3.10;2.90;;;;;;;8.89;80.00;93443.72;515303;28;805;-63
2023/11/16 00:27:32;;;;;;;2.80;2.70;;;;;;;8.88;80.12;93445.00;515390;28;1973;-64
2023/11/16 00:27:48;;;;;;;2.65;2.55;;;;;;;8.89;80.31;93446.47;515448;28;1574;-65
2023/11/16 00:28:04;;;;;;;2.63;2.53;;;;;;;8.92;80.02;93448.13;515291;28;841;-65
2023/11/16 00:28:20;;;;;;;3.20;2.60;;;;;;;8.93;80.37;93452.38;515260;28;1069;-64
2023/11/16 00:28:35;;;;;;;3.50;3.20;;;;;;;8.95;80.45;93446.34;515800;28;1022;-65
2023/11/16 00:28:54;;;;;;;3.55;3.45;;;;;;;8.96;80.30;93445.06;515435;28;844;-64
2023/11/16 00:29:11;;;;;;;3.05;2.95;;;;;;;8.96;80.36;93447.81;515370;28;1634;-64
2023/11/16 00:29:26;;;;;;;2.85;2.70;;;;;;;8.98;80.29;93442.50;515608;28;836;-64
2023/11/16 00:29:41;;;;;;;2.75;2.65;;;;;;;8.98;80.16;93446.00;515592;28;940;-65
2023/11/16 00:29:57;;;;;;;3.20;3.00;;;;;;;9.00;80.22;93439.97;515412;28;912;-65
2023/11/16 00:30:13;;;;;;;3.77;3.53;;;;;;;8.97;79.97;93446.53;515453;28;907;-64
2023/11/16 00:30:28;;;;;;;3.40;3.25;;;;;;;8.96;80.38;93443.06;515611;28;1009;-64
2023/11/16 00:30:44;;;;;;;2.83;2.63;;;;;;;8.96;80.13;93443.06;515553;28;888;-64
2023/11/16 00:30:59;;;;;;;2.57;2.47;;;;;;;8.98;79.96;93439.75;515745;28;737;-65
2023/11/16 00:31:15;;;;;;;2.78;2.67;;;;;;;8.98;80.06;93448.75;515466;28;995;-64
2023/11/16 00:31:30;;;;;;;2.78;2.67;;;;;;;8.99;80.15;93446.72;515453;28;811;-64
2023/11/16 00:31:46;;;;;;;2.60;2.50;;;;;;;8.96;80.33;93436.81;515703;28;820;-64
2023/11/16 00:32:01;;;;;;;2.80;2.70;;;;;;;8.92;80.37;93439.88;515282;28;915;-64
2023/11/16 00:32:18;;;;;;;3.20;3.10;;;;;;;8.89;80.77;93438.22;515474;28;1140;-65
2023/11/16 00:32:34;;;;;;;3.10;3.00;;;;;;;8.90;80.70;93441.72;515594;28;1585;-64
2023/11/16 00:32:49;;;;;;;2.70;2.60;;;;;;;8.93;80.54;93444.13;515635;28;987;-64
2023/11/16 00:33:04;;;;;;;2.90;2.80;;;;;;;8.94;80.46;93442.13;515409;28;845;-64
2023/11/16 00:33:20;;;;;;;3.50;3.30;;;;;;;8.92;80.84;93439.88;515591;28;824;-64
2023/11/16 00:33:35;;;;;;;3.60;3.40;;;;;;;8.92;80.92;93445.38;515460;28;829;-64
2023/11/16 00:33:51;;;;;;;3.43;3.23;;;;;;;8.93;80.63;93446.13;515560;28;943;-65
2023/11/16 00:34:06;;;;;;;3.20;3.00;;;;;;;8.94;80.46;93445.59;515463;28;805;-64
2023/11/16 00:34:21;;;;;;;3.38;3.22;;;;;;;8.95;80.76;93447.06;515517;28;836;-64
2023/11/16 00:34:37;;;;;;;3.10;3.00;;;;;;;8.96;80.75;93448.56;515645;28;856;-64
2023/11/16 00:34:52;;;;;;;2.90;2.67;;;;;;;8.97;80.64;93449.28;515576;28;821;-64
2023/11/16 00:35:08;;;;;;;3.30;3.00;;;;;;;8.96;80.63;93451.31;515441;28;787;-65
2023/11/16 00:35:23;;;;;;;3.40;3.10;;;;;;;8.94;80.38;93453.84;515570;28;776;-65
2023/11/16 00:35:40;;;;;;;2.90;2.70;;;;;;;8.95;80.44;93449.81;515469;28;975;-65
2023/11/16 00:35:58;;;;;;;2.50;2.40;;;;;;;8.97;80.80;93452.03;515547;28;944;-64
2023/11/16 00:36:13;;;;;;;2.63;2.53;;;;;;;8.99;80.73;93455.72;515425;28;853;-65
2023/11/16 00:36:28;;;;;;;3.07;2.97;;;;;;;8.96;80.76;93462.34;515528;28;904;-64
2023/11/16 00:36:45;;;;;;;3.25;3.15;;;;;;;8.96;80.62;93456.81;515558;28;884;-64
2023/11/16 00:37:05;;;;;;;3.05;2.95;;;;;;;8.98;80.66;93456.28;515640;28;829;-64
2023/11/16 00:37:20;;;;;;;3.20;3.00;;;;;;;9.01;80.68;93461.44;515592;28;1155;-65
2023/11/16 00:37:36;;;;;;;3.03;2.83;;;;;;;9.02;80.50;93451.91;515290;28;758;-65
2023/11/16 00:37:51;;;;;;;2.63;2.50;;;;;;;9.03;80.54;93449.91;515410;28;836;-64
2023/11/16 00:38:07;;;;;;;2.60;2.50;;;;;;;9.02;80.49;93457.41;515526;28;841;-64
2023/11/16 00:38:25;;;;;;;2.80;2.70;;;;;;;9.04;80.63;93459.63;515638;28;785;-64
2023/11/16 00:38:41;;;;;;;2.80;2.70;;;;;;;9.06;80.42;93455.06;515643;28;829;-64
2023/11/16 00:38:58;;;;;;;2.60;2.50;;;;;;;9.08;80.46;93460.78;515558;28;754;-64
2023/11/16 00:39:13;;;;;;;2.67;2.58;;;;;;;9.10;80.22;93455.47;515450;28;1016;-64
2023/11/16 00:39:31;;;;;;;3.80;3.60;;;;;;;9.09;80.03;93454.00;515524;28;829;-65
2023/11/16 00:39:47;;;;;;;4.00;3.85;;;;;;;9.08;80.43;93455.25;515583;28;938;-65
2023/11/16 00:40:03;;;;;;;3.13;3.03;;;;;;;9.07;80.19;93461.31;515479;28;786;-65
2023/11/16 00:40:20;;;;;;;3.97;3.78;;;;;;;9.05;79.99;93456.31;515534;28;798;-64
2023/11/16 00:40:35;;;;;;;4.10;3.90;;;;;;;9.02;80.43;93457.41;515632;28;1057;-64
2023/11/16 00:40:51;;;;;;;2.97;2.87;;;;;;;9.02;80.53;93453.94;515639;28;876;-64
2023/11/16 00:41:08;;;;;;;2.72;2.63;;;;;;;9.01;80.67;93458.69;515430;28;1056;-64
2023/11/16 00:41:24;;;;;;;2.70;2.60;;;;;;;9.00;80.34;93457.22;515655;28;820;-64
2023/11/16 00:41:40;;;;;;;2.90;2.80;;;;;;;8.99;80.64;93455.72;515556;28;805;-64
2023/11/16 00:41:56;;;;;;;3.10;2.90;;;;;;;9.01;80.40;93455.94;515585;28;831;-64
2023/11/16 00:42:11;;;;;;;2.85;2.67;;;;;;;9.03;80.64;93455.41;515582;28;781;-64
2023/11/16 00:42:28;;;;;;;2.70;2.60;;;;;;;9.04;80.67;93459.63;515539;28;857;-64
2023/11/16 00:42:43;;;;;;;2.95;2.75;;;;;;;9.03;80.83;93447.88;515573;28;845;-64
2023/11/16 00:42:59;;;;;;;3.07;2.90;;;;;;;9.04;80.51;93454.13;515380;28;829;-64
2023/11/16 00:43:14;;;;;;;3.13;3.03;;;;;;;9.04;80.49;93463.13;515476;28;1593;-64
2023/11/16 00:43:30;;;;;;;3.22;3.03;;;;;;;9.05;80.81;93459.09;515365;28;770;-65
2023/11/16 00:43:45;;;;;;;3.73;3.57;;;;;;;9.07;80.66;93453.06;515267;28;1593;-64
2023/11/16 00:44:02;;;;;;;3.90;3.70;;;;;;;9.07;80.50;93464.78;515362;28;805;-64
2023/11/16 00:44:19;;;;;;;4.00;3.80;;;;;;;9.06;80.36;93457.81;515557;28;844;-64
2023/11/16 00:44:35;;;;;;;3.38;3.20;;;;;;;9.07;80.59;93455.81;515394;28;972;-64
2023/11/16 00:44:50;;;;;;;2.42;2.33;;;;;;;9.07;80.30;93455.81;515494;28;774;-64
2023/11/16 00:45:06;;;;;;;2.60;2.50;;;;;;;9.05;80.70;93463.88;515460;28;814;-64
2023/11/16 00:45:22;;;;;;;2.92;2.80;;;;;;;9.05;80.63;93458.38;515562;28;916;-64
2023/11/16 00:45:38;;;;;;;3.33;3.13;;;;;;;9.06;80.33;93460.56;515492;28;805;-65
2023/11/16 00:45:54;;;;;;;2.95;2.75;;;;;;;9.07;80.26;93453.78;515217;28;801;-65
2023/11/16 00:46:11;;;;;;;2.70;2.60;;;;;;;9.07;80.50;93464.78;515352;28;900;-65
2023/11/16 00:46:27;;;;;;;2.90;2.80;;;;;;;9.07;80.22;93462.03;515561;28;986;-65
2023/11/16 00:46:43;;;;;;;2.90;2.80;;;;;;;9.05;80.50;93458.38;515474;28;860;-65
2023/11/16 00:46:58;;;;;;;2.72;2.63;;;;;;;9.07;80.51;93464.06;515412;28;829;-65
2023/11/16 00:47:18;;;;;;;2.70;2.60;;;;;;;9.05;80.43;93464.59;515294;28;911;-65
2023/11/16 00:47:33;;;;;;;2.95;2.85;;;;;;;9.02;80.33;93459.44;515371;28;1994;-64
2023/11/16 00:47:49;;;;;;;2.93;2.83;;;;;;;8.99;80.57;93461.25;515539;28;1213;-64
2023/11/16 00:48:04;;;;;;;2.85;2.75;;;;;;;8.96;80.70;93462.34;515471;28;805;-65
2023/11/16 00:48:20;;;;;;;2.97;2.83;;;;;;;8.98;80.57;93461.78;515503;28;798;-64
2023/11/16 00:48:35;;;;;;;2.92;2.80;;;;;;;8.99;80.79;93460.50;515497;28;1415;-64
2023/11/16 00:48:52;;;;;;;2.83;2.73;;;;;;;8.98;80.70;93470.78;515610;28;834;-64
2023/11/16 00:49:07;;;;;;;3.25;3.08;;;;;;;8.99;80.74;93469.50;515441;28;813;-65
2023/11/16 00:49:23;;;;;;;3.27;3.17;;;;;;;8.98;80.61;93468.03;515513;28;766;-64
2023/11/16 00:49:38;;;;;;;3.03;2.92;;;;;;;8.95;80.76;93468.34;515465;28;880;-64
2023/11/16 00:49:54;;;;;;;3.03;2.93;;;;;;;8.94;80.80;93473.13;515578;28;961;-65
2023/11/16 00:50:09;;;;;;;2.93;2.83;;;;;;;8.93;80.62;93477.16;515400;28;856;-65
2023/11/16 00:50:24;;;;;;;3.00;2.90;;;;;;;8.93;80.79;93474.41;515560;28;1042;-65
2023/11/16 00:50:40;;;;;;;3.30;3.20;;;;;;;8.91;80.92;93479.72;515643;28;804;-64
2023/11/16 00:50:55;;;;;;;3.85;3.65;;;;;;;8.83;81.51;93478.16;515606;28;928;-64
2023/11/16 00:51:14;;;;;;;3.97;3.77;;;;;;;8.82;81.46;93476.69;515447;28;766;-65
2023/11/16 00:51:30;;;;;;;3.40;3.30;;;;;;;8.82;81.46;93480.19;515453;28;907;-65
2023/11/16 00:51:46;;;;;;;3.90;3.80;;;;;;;8.75;81.58;93471.88;515602;28;860;-64
2023/11/16 00:52:01;;;;;;;3.80;3.60;;;;;;;8.74;82.01;93473.13;515510;28;777;-65
2023/11/16 00:52:19;;;;;;;3.17;3.03;;;;;;;8.72;81.91;93472.94;515438;28;915;-65
2023/11/16 00:52:35;;;;;;;3.58;3.47;;;;;;;8.71;82.35;93477.69;515212;28;1056;-64
2023/11/16 00:52:50;;;;;;;3.70;3.50;;;;;;;8.71;82.10;93474.94;515251;28;786;-64
2023/11/16 00:53:05;;;;;;;3.97;3.78;;;;;;;8.71;82.11;93469.44;515253;28;793;-64
2023/11/16 00:53:21;;;;;;;3.90;3.70;;;;;;;8.70;82.08;93478.97;515556;28;1197;-65
2023/11/16 00:53:46;;;;;;;3.50;3.35;;;;;;;8.70;82.13;93467.22;515391;28;900;-64
2023/11/16 00:54:01;;;;;;;3.28;3.10;;;;;;;8.72;82.16;93476.44;515417;28;896;-64
2023/11/16 00:54:17;;;;;;;3.50;3.30;;;;;;;8.70;82.42;93467.97;515477;28;821;-65
2023/11/16 00:54:33;;;;;;;3.50;3.30;;;;;;;8.70;82.21;93467.22;515300;28;801;-65
2023/11/16 00:54:49;;;;;;;3.53;3.33;;;;;;;8.71;82.56;93465.94;515720;28;894;-65
2023/11/16 00:55:04;;;;;;;2.90;2.80;;;;;;;8.72;82.41;93470.91;515357;28;872;-64
2023/11/16 00:55:21;;;;;;;2.92;2.78;;;;;;;8.72;82.52;93462.66;515488;28;738;-65
2023/11/16 00:55:37;;;;;;;3.40;3.20;;;;;;;8.73;82.25;93472.38;515313;28;953;-65
2023/11/16 00:55:52;;;;;;;3.33;3.17;;;;;;;8.74;82.15;93467.63;515495;28;813;-66
2023/11/16 00:56:09;;;;;;;3.80;3.60;;;;;;;8.71;82.14;93460.44;515489;28;833;-65
2023/11/16 00:56:24;;;;;;;4.32;4.13;;;;;;;8.68;82.42;93465.00;515415;28;907;-65
2023/11/16 00:56:39;;;;;;;4.03;3.72;;;;;;;8.69;82.29;93460.97;515421;28;1061;-65
2023/11/16 00:56:55;;;;;;;3.47;3.27;;;;;;;8.69;82.33;93460.97;515423;28;1071;-64
2023/11/16 00:57:10;;;;;;;3.40;3.20;;;;;;;8.70;82.47;93465.22;515193;28;770;-64
2023/11/16 00:57:25;;;;;;;3.10;2.90;;;;;;;8.71;82.07;93461.16;515495;28;849;-64
2023/11/16 00:57:44;;;;;;;3.10;2.90;;;;;;;8.71;82.37;93463.19;515491;28;1001;-64
2023/11/16 00:58:01;;;;;;;3.40;3.20;;;;;;;8.71;82.18;93460.44;515442;28;1177;-65
2023/11/16 00:58:19;;;;;;;3.95;3.65;;;;;;;8.68;81.96;93453.25;515649;28;851;-65
2023/11/16 00:58:37;;;;;;;3.15;2.95;;;;;;;8.68;82.03;93456.00;515513;28;825;-64
2023/11/16 00:58:55;;;;;;;3.33;3.20;;;;;;;8.64;82.23;93461.13;515562;28;904;-66
2023/11/16 00:59:11;;;;;;;4.00;3.70;;;;;;;8.63;82.18;93457.63;515347;28;881;-65
2023/11/16 00:59:28;;;;;;;3.83;3.40;;;;;;;8.63;82.45;93460.38;515599;28;832;-64
2023/11/16 00:59:45;;;;;;;3.25;3.05;;;;;;;8.65;82.37;93460.56;517478;28;879;-65
2023/11/16 01:00:03;;;;;;;3.30;3.17;;;;;;;8.58;82.53;93452.97;517459;28;848;-65
2023/11/16 01:00:19;;;;;;;5.40;5.20;;;;;;;8.52;82.45;93455.13;517584;28;868;-65
2023/11/16 01:00:35;;;;;;;4.55;4.35;;;;;;;8.47;82.91;93452.50;516869;28;2385;-64
2023/11/16 01:00:51;;;;;;;3.65;3.45;;;;;;;8.44;83.10;93454.31;515504;28;892;-65
2023/11/16 01:01:07;;;;;;;3.60;3.40;;;;;;;8.46;83.29;93451.75;515554;28;909;-65
2023/11/16 01:01:26;;;;;;;3.40;3.20;;;;;;;8.48;83.33;93454.72;515470;28;761;-64
2023/11/16 01:01:43;;;;;;;3.30;3.10;;;;;;;8.49;82.92;93458.94;515530;28;941;-64
2023/11/16 01:01:59;;;;;;;3.10;2.90;;;;;;;8.49;83.03;93456.19;515447;28;861;-64
2023/11/16 01:02:14;;;;;;;3.20;3.00;;;;;;;8.24;82.96;93416.47;515584;28;770;-64
2023/11/16 01:02:30;;;;;;;3.67;3.53;;;;;;;8.50;82.77;93454.16;515585;28;824;-64
2023/11/16 01:02:48;;;;;;;3.97;3.77;;;;;;;8.49;82.76;93458.22;515298;28;826;-65
2023/11/16 01:03:06;;;;;;;3.70;3.50;;;;;;;8.49;83.02;93458.22;515465;28;1689;-63
2023/11/16 01:03:21;;;;;;;3.60;3.40;;;;;;;8.49;82.97;93463.72;515350;28;871;-64
2023/11/16 01:03:36;;;;;;;3.43;3.23;;;;;;;8.48;82.72;93459.47;515465;28;872;-64
2023/11/16 01:03:53;;;;;;;3.40;3.28;;;;;;;8.48;82.94;93459.47;515418;28;836;-64
2023/11/16 01:04:11;;;;;;;3.60;3.40;;;;;;;8.47;82.66;93455.25;515397;28;1075;-64
2023/11/16 01:04:27;;;;;;;2.83;2.72;;;;;;;8.42;82.72;93462.38;515642;28;837;-65
2023/11/16 01:04:42;;;;;;;2.90;2.80;;;;;;;8.44;82.99;93470.06;515558;28;760;-65
2023/11/16 01:04:57;;;;;;;3.03;2.90;;;;;;;8.44;82.84;93468.06;515666;28;770;-64
2023/11/16 01:05:13;;;;;;;2.95;2.75;;;;;;;8.45;82.71;93466.78;515533;28;932;-63
2023/11/16 01:05:28;;;;;;;3.30;3.00;;;;;;;8.48;82.93;93467.72;515419;28;876;-64
2023/11/16 01:05:44;;;;;;;3.50;3.30;;;;;;;8.48;82.89;93462.97;515499;28;1050;-65
2023/11/16 01:05:59;;;;;;;3.47;3.28;;;;;;;8.50;82.81;93470.69;515491;28;840;-64
2023/11/16 01:06:15;;;;;;;3.17;3.03;;;;;;;8.51;82.41;93469.41;515572;28;923;-64
2023/11/16 01:06:33;;;;;;;3.40;3.20;;;;;;;8.50;82.43;93474.19;515495;28;837;-64
2023/11/16 01:06:48;;;;;;;3.38;3.17;;;;;;;8.52;82.28;93473.63;515547;28;888;-65
2023/11/16 01:07:08;;;;;;;3.20;3.00;;;;;;;8.51;82.28;93472.16;515589;28;805;-64
2023/11/16 01:07:23;;;;;;;3.20;2.90;;;;;;;8.50;82.41;93474.19;515552;28;861;-64
2023/11/16 01:07:39;;;;;;;3.33;3.03;;;;;;;8.51;82.16;93474.91;515215;28;1922;-64
2023/11/16 01:07:54;;;;;;;3.28;3.08;;;;;;;8.48;82.23;93473.97;515142;28;1222;-65
2023/11/16 01:08:10;;;;;;;3.50;3.30;;;;;;;8.45;82.22;93477.78;515477;28;794;-65
2023/11/16 01:08:29;;;;;;;3.47;3.28;;;;;;;8.46;82.25;93473.78;515681;28;868;-65
2023/11/16 01:08:46;;;;;;;3.58;3.33;;;;;;;8.46;82.30;93476.53;515608;28;916;-65
2023/11/16 01:09:07;;;;;;;4.03;3.75;;;;;;;8.45;82.51;93474.28;515306;28;817;-65
2023/11/16 01:09:22;;;;;;;4.55;4.28;;;;;;;8.40;82.75;93473.88;515632;28;841;-66
2023/11/16 01:09:38;;;;;;;4.33;4.13;;;;;;;8.18;82.68;93443.38;515643;28;773;-65
2023/11/16 01:09:54;;;;;;;4.00;3.80;;;;;;;8.39;82.75;93469.66;515916;28;1179;-65
2023/11/16 01:10:15;;;;;;;3.70;3.50;;;;;;;8.41;82.53;93477.38;515838;28;730;-64
2023/11/16 01:10:30;;;;;;;3.47;3.28;;;;;;;8.43;82.66;93474.09;515970;28;874;-64
2023/11/16 01:10:46;;;;;;;3.65;3.38;;;;;;;8.43;82.95;93480.34;515977;28;907;-64
2023/11/16 01:11:02;;;;;;;3.90;3.60;;;;;;;8.43;82.88;93472.06;515828;28;974;-66
2023/11/16 01:11:27;;;;;;;4.22;4.03;;;;;;;8.44;83.04;93470.06;516058;28;857;-64
2023/11/16 01:11:43;;;;;;;3.80;3.60;;;;;;;8.42;82.80;93476.13;515618;28;920;-65
2023/11/16 01:11:58;;;;;;;4.05;3.85;;;;;;;8.40;82.82;93470.41;515866;28;868;-64
2023/11/16 01:12:17;;;;;;;3.90;3.70;;;;;;;8.39;82.85;93466.16;515845;28;821;-64
2023/11/16 01:12:32;;;;;;;3.92;3.72;;;;;;;8.39;82.98;93469.66;515830;28;936;-64
2023/11/16 01:12:50;;;;;;;4.40;4.03;;;;;;;8.41;82.73;93469.13;515930;28;864;-64
2023/11/16 01:13:07;;;;;;;4.47;3.75;;;;;;;8.30;82.99;93455.63;515888;28;873;-65
2023/11/16 01:13:24;;;;;;;4.18;3.78;;;;;;;8.40;82.72;93468.38;515978;28;932;-65
2023/11/16 01:13:39;;;;;;;4.20;4.00;;;;;;;8.37;82.83;93466.72;515791;28;913;-64
2023/11/16 01:13:56;;;;;;;4.17;3.87;;;;;;;8.38;82.83;93473.69;515801;28;782;-65
2023/11/16 01:14:16;;;;;;;4.03;3.72;;;;;;;8.39;82.81;93468.91;515917;28;908;-64
2023/11/16 01:14:31;;;;;;;4.00;3.80;;;;;;;8.38;82.93;93470.94;515900;28;952;-64
2023/11/16 01:14:52;;;;;;;3.87;3.67;;;;;;;8.40;82.95;93467.66;516188;28;878;-64
2023/11/16 01:15:10;;;;;;;3.80;3.60;;;;;;;8.41;82.90;93466.38;515774;28;940;-64
2023/11/16 01:15:26;;;;;;;4.05;3.85;;;;;;;8.43;82.88;93466.56;516067;28;854;-64
2023/11/16 01:15:44;;;;;;;4.28;4.07;;;;;;;8.44;82.80;93468.06;515780;28;972;-64
2023/11/16 01:16:03;;;;;;;4.18;3.95;;;;;;;8.45;82.82;93466.03;515821;28;903;-65
2023/11/16 01:16:18;;;;;;;3.95;3.65;;;;;;;8.45;82.84;93463.28;515991;28;839;-65
2023/11/16 01:16:41;;;;;;;4.22;3.92;;;;;;;8.44;82.91;93465.31;515984;28;814;-65
2023/11/16 01:17:03;;;;;;;4.07;3.88;;;;;;;8.43;82.86;93466.56;515919;28;886;-64
2023/11/16 01:17:20;;;;;;;3.97;3.78;;;;;;;8.44;82.68;93468.06;515865;28;1074;-65
2023/11/16 01:17:36;;;;;;;3.55;3.35;;;;;;;8.45;82.82;93469.53;515968;28;943;-64
2023/11/16 01:17:52;;;;;;;3.33;3.13;;;;;;;8.47;82.66;93463.50;515448;28;1875;-64
2023/11/16 01:18:12;;;;;;;3.60;3.33;;;;;;;8.47;82.68;93469.72;515965;28;816;-64
2023/11/16 01:18:27;;;;;;;3.90;3.70;;;;;;;8.47;82.49;93466.25;517656;28;1167;-65
2023/11/16 01:18:46;;;;;;;4.23;4.03;;;;;;;8.47;82.56;93471.75;517938;28;1018;-64
2023/11/16 01:19:01;;;;;;;4.78;4.32;;;;;;;8.47;82.50;93469.72;517889;28;857;-64
2023/11/16 01:19:21;;;;;;;4.47;4.25;;;;;;;8.47;82.68;93463.50;518004;28;836;-64
2023/11/16 01:19:43;;;;;;;4.03;3.83;;;;;;;8.44;82.66;93461.81;517885;28;1238;-66
2023/11/16 01:20:04;;;;;;;3.65;3.45;;;;;;;8.37;82.75;93466.72;517835;28;940;-66
2023/11/16 01:20:22;;;;;;;4.18;3.97;;;;;;;8.32;82.90;93464.81;517985;28;912;-65
2023/11/16 01:20:38;;;;;;;4.57;4.38;;;;;;;8.23;83.42;93472.72;518085;28;884;-64